Time;durP1;ratioP1;P1;durP2;ratioP2;P2;SDS_P1;SDS_P2;PMS_P1;PMS_P2;Temp;Humidity;BMP_temperature;BMP_pressure;BME280_temperature;BME280_humidity;BME280_pressure;Samples;Min_cycle;Max_cycle;Signal;HPM_P1;HPM_P2
2023/06/06 00:02:21;;;;;;;;;;;;;;;;;;5041966;28;19948;-49
2023/06/06 00:04:49;;;;;;;;;;;;;;;;;;5041509;28;20026;-49
2023/06/06 00:07:16;;;;;;;;;;;;;;;;;;5043750;28;20462;-49
2023/06/06 00:09:42;;;;;;;;;;;;;;;;;;5045783;28;19920;-49
2023/06/06 00:12:12;;;;;;;;;;;;;;;;;;5042327;28;19975;-49
2023/06/06 00:14:38;;;;;;;;;;;;;;;;;;5045522;28;19920;-49
2023/06/06 00:17:04;;;;;;;;;;;;;;;;;;5040640;28;20003;-48
2023/06/06 00:19:32;;;;;;;;;;;;;;;;;;5046997;28;20407;-48
2023/06/06 00:21:58;;;;;;;;;;;;;;;;;;5027947;28;19947;-48
2023/06/06 00:24:24;;;;;;;;;;;;;;;;;;5046933;28;19917;-48
2023/06/06 00:26:50;;;;;;;;;;;;;;;;;;5045243;28;20288;-48
2023/06/06 00:29:16;;;;;;;;;;;;;;;;;;5043340;28;19963;-48
2023/06/06 00:31:42;;;;;;;;;;;;;;;;;;5046247;28;20014;-48
2023/06/06 00:34:08;;;;;;;;;;;;;;;;;;5047555;28;19971;-48
2023/06/06 00:36:34;;;;;;;;;;;;;;;;;;5047731;28;19960;-48
2023/06/06 00:39:00;;;;;;;;;;;;;;;;;;5044001;28;19921;-48
2023/06/06 00:41:26;;;;;;;;;;;;;;;;;;5027088;28;20039;-49
2023/06/06 00:43:52;;;;;;;;;;;;;;;;;;5028381;28;19964;-49
2023/06/06 00:46:18;;;;;;;;;;;;;;;;;;5035824;28;19956;-48
2023/06/06 00:48:44;;;;;;;;;;;;;;;;;;5029834;28;19952;-49
2023/06/06 00:51:10;;;;;;;;;;;;;;;;;;5034801;28;20040;-49
2023/06/06 00:53:36;;;;;;;;;;;;;;;;;;5047897;28;19975;-48
2023/06/06 00:56:02;;;;;;;;;;;;;;;;;;5046489;28;19945;-49
2023/06/06 00:58:28;;;;;;;;;;;;;;;;;;5048148;28;19997;-49
2023/06/06 01:00:54;;;;;;;;;;;;;;;;;;5041557;28;19924;-48
2023/06/06 01:03:21;;;;;;;;;;;;;;;;;;5041548;28;19979;-49
2023/06/06 01:05:47;;;;;;;;;;;;;;;;;;5045108;28;19924;-49
2023/06/06 01:08:13;;;;;;;;;;;;;;;;;;5044773;28;19990;-49
2023/06/06 01:10:40;;;;;;;;;;;;;;;;;;5043951;28;19924;-49
2023/06/06 01:13:06;;;;;;;;;;;;;;;;;;5046032;28;20020;-49
2023/06/06 01:15:32;;;;;;;;;;;;;;;;;;5040367;28;20003;-48
2023/06/06 01:18:01;;;;;;;;;;;;;;;;;;5043759;28;20631;-49
2023/06/06 01:20:28;;;;;;;;;;;;;;;;;;5042100;28;20414;-49
2023/06/06 01:22:54;;;;;;;;;;;;;;;;;;5044353;28;19916;-49
2023/06/06 01:25:21;;;;;;;;;;;;;;;;;;5042044;28;20424;-50
2023/06/06 01:27:47;;;;;;;;;;;;;;;;;;5042210;28;20015;-49
2023/06/06 01:30:13;;;;;;;;;;;;;;;;;;5045513;28;20039;-49
2023/06/06 01:32:39;;;;;;;;;;;;;;;;;;5039573;28;20387;-49
2023/06/06 01:35:05;;;;;;;;;;;;;;;;;;5044015;28;19996;-49
2023/06/06 01:37:31;;;;;;;;;;;;;;;;;;5045502;28;19975;-49
2023/06/06 01:39:57;;;;;;;;;;;;;;;;;;5038259;28;19952;-49
2023/06/06 01:42:23;;;;;;;;;;;;;;;;;;5047207;28;19944;-49
2023/06/06 01:44:49;;;;;;;;;;;;;;;;;;5046356;28;20461;-49
2023/06/06 01:47:15;;;;;;;;;;;;;;;;;;5046851;28;20023;-49
2023/06/06 01:49:41;;;;;;;;;;;;;;;;;;5044819;28;20000;-50
2023/06/06 01:52:08;;;;;;;;;;;;;;;;;;5044957;28;20006;-49
2023/06/06 01:54:34;;;;;;;;;;;;;;;;;;5044132;28;19916;-49
2023/06/06 01:57:00;;;;;;;;;;;;;;;;;;5045006;28;19970;-49
2023/06/06 01:59:26;;;;;;;;;;;;;;;;;;5046914;28;20356;-49
2023/06/06 02:01:52;;;;;;;;;;;;;;;;;;5047259;28;20015;-49
2023/06/06 02:04:18;;;;;;;;;;;;;;;;;;5048223;28;19948;-49
2023/06/06 02:06:45;;;;;;;;;;;;;;;;;;5043655;28;20033;-49
2023/06/06 02:09:11;;;;;;;;;;;;;;;;;;5048275;28;19935;-48
2023/06/06 02:11:37;;;;;;;;;;;;;;;;;;5046269;28;19912;-49
2023/06/06 02:14:03;;;;;;;;;;;;;;;;;;5045807;28;19920;-49
2023/06/06 02:16:29;;;;;;;;;;;;;;;;;;5051569;28;19967;-48
2023/06/06 02:18:56;;;;;;;;;;;;;;;;;;5050442;28;19955;-49
2023/06/06 02:21:21;;;;;;;;;;;;;;;;;;5047621;28;19940;-49
2023/06/06 02:23:47;;;;;;;;;;;;;;;;;;5049796;28;19947;-49
2023/06/06 02:26:14;;;;;;;;;;;;;;;;;;5049338;28;19960;-48
2023/06/06 02:28:40;;;;;;;;;;;;;;;;;;5049465;28;19916;-49
2023/06/06 02:31:06;;;;;;;;;;;;;;;;;;5049497;28;20450;-48
2023/06/06 02:33:32;;;;;;;;;;;;;;;;;;5047923;28;19917;-48
2023/06/06 02:35:58;;;;;;;;;;;;;;;;;;5050534;28;20058;-49
2023/06/06 02:38:24;;;;;;;;;;;;;;;;;;5049940;28;20012;-49
2023/06/06 02:40:50;;;;;;;;;;;;;;;;;;5033350;28;19917;-52
2023/06/06 02:43:16;;;;;;;;;;;;;;;;;;5049074;28;19917;-49
2023/06/06 02:45:42;;;;;;;;;;;;;;;;;;5049123;28;19948;-49
2023/06/06 02:48:08;;;;;;;;;;;;;;;;;;5047798;28;20003;-49
2023/06/06 02:50:34;;;;;;;;;;;;;;;;;;5046346;28;20012;-49
2023/06/06 02:53:03;;;;;;;;;;;;;;;;;;5045737;28;19963;-49
2023/06/06 02:55:30;;;;;;;;;;;;;;;;;;5041024;28;20560;-48
2023/06/06 02:57:56;;;;;;;;;;;;;;;;;;5045913;28;19940;-49
2023/06/06 03:00:22;;;;;;;;;;;;;;;;;;5044640;28;20467;-49
2023/06/06 03:02:48;;;;;;;;;;;;;;;;;;5045014;28;19917;-49
2023/06/06 03:05:14;;;;;;;;;;;;;;;;;;5043263;28;19979;-49
2023/06/06 03:07:40;;;;;;;;;;;;;;;;;;5028957;28;19921;-49
2023/06/06 03:10:06;;;;;;;;;;;;;;;;;;5045780;28;19992;-49
2023/06/06 03:12:32;;;;;;;;;;;;;;;;;;5045499;28;20556;-49
2023/06/06 03:14:58;;;;;;;;;;;;;;;;;;5044488;28;19948;-49
2023/06/06 03:17:24;;;;;;;;;;;;;;;;;;5042495;28;20001;-49
2023/06/06 03:19:50;;;;;;;;;;;;;;;;;;5045972;28;20392;-48
2023/06/06 03:22:17;;;;;;;;;;;;;;;;;;5047392;28;19916;-48
2023/06/06 03:24:46;;;;;;;;;;;;;;;;;;5044071;28;19913;-48
2023/06/06 03:27:13;;;;;;;;;;;;;;;;;;5044906;28;19921;-56
2023/06/06 03:29:39;;;;;;;;;;;;;;;;;;5043378;28;20300;-48
2023/06/06 03:32:05;;;;;;;;;;;;;;;;;;5047024;28;19919;-48
2023/06/06 03:34:31;;;;;;;;;;;;;;;;;;5043568;28;20399;-49
2023/06/06 03:36:58;;;;;;;;;;;;;;;;;;5044871;28;19967;-48
2023/06/06 03:39:24;;;;;;;;;;;;;;;;;;5037201;28;19932;-49
2023/06/06 03:41:50;;;;;;;;;;;;;;;;;;5038800;28;19923;-49
2023/06/06 03:44:16;;;;;;;;;;;;;;;;;;5041791;28;19956;-49
2023/06/06 03:46:42;;;;;;;;;;;;;;;;;;5044929;28;19999;-49
2023/06/06 03:49:08;;;;;;;;;;;;;;;;;;5042570;28;19909;-49
2023/06/06 03:51:35;;;;;;;;;;;;;;;;;;5045896;28;19955;-49
2023/06/06 03:54:01;;;;;;;;;;;;;;;;;;5046316;28;20453;-49
2023/06/06 03:56:27;;;;;;;;;;;;;;;;;;5041411;28;20011;-49
2023/06/06 03:58:53;;;;;;;;;;;;;;;;;;5039689;28;20364;-49
2023/06/06 04:01:22;;;;;;;;;;;;;;;;;;5042183;28;20395;-50
2023/06/06 04:03:48;;;;;;;;;;;;;;;;;;5045571;28;19921;-50
2023/06/06 04:06:14;;;;;;;;;;;;;;;;;;5042605;28;19913;-50
2023/06/06 04:08:41;;;;;;;;;;;;;;;;;;5044938;28;19916;-50
2023/06/06 04:11:07;;;;;;;;;;;;;;;;;;5044364;28;20007;-50
2023/06/06 04:13:32;;;;;;;;;;;;;;;;;;5048019;28;20331;-50
2023/06/06 04:15:58;;;;;;;;;;;;;;;;;;5048559;28;20025;-50
2023/06/06 04:18:25;;;;;;;;;;;;;;;;;;5047174;28;19940;-52
2023/06/06 04:20:52;;;;;;;;;;;;;;;;;;5047846;28;19916;-50
2023/06/06 04:23:21;;;;;;;;;;;;;;;;;;5048494;28;20274;-50
2023/06/06 04:25:48;;;;;;;;;;;;;;;;;;5047769;28;20237;-50
2023/06/06 04:28:18;;;;;;;;;;;;;;;;;;5045784;28;19913;-50
2023/06/06 04:30:45;;;;;;;;;;;;;;;;;;5048114;28;19967;-50
2023/06/06 04:33:11;;;;;;;;;;;;;;;;;;5047020;28;19913;-48
2023/06/06 04:35:42;;;;;;;;;;;;;;;;;;5047685;28;19921;-48
2023/06/06 04:38:08;;;;;;;;;;;;;;;;;;5047491;28;20015;-50
2023/06/06 04:40:35;;;;;;;;;;;;;;;;;;5030619;28;19913;-48
2023/06/06 04:43:01;;;;;;;;;;;;;;;;;;5020583;28;20422;-47
2023/06/06 04:45:27;;;;;;;;;;;;;;;;;;5048577;28;20323;-49
2023/06/06 04:47:55;;;;;;;;;;;;;;;;;;5038605;28;19935;-49
2023/06/06 04:50:23;;;;;;;;;;;;;;;;;;5048193;28;19920;-49
2023/06/06 04:52:49;;;;;;;;;;;;;;;;;;5047362;28;20060;-48
2023/06/06 04:55:15;;;;;;;;;;;;;;;;;;5047372;28;19913;-49
2023/06/06 04:57:44;;;;;;;;;;;;;;;;;;5040814;28;19917;-49
2023/06/06 05:00:12;;;;;;;;;;;;;;;;;;5040900;28;19955;-50
2023/06/06 05:02:40;;;;;;;;;;;;;;;;;;5037402;28;20277;-49
2023/06/06 05:05:09;;;;;;;;;;;;;;;;;;5040866;28;19924;-49
2023/06/06 05:07:37;;;;;;;;;;;;;;;;;;5038787;28;19917;-50
2023/06/06 05:10:03;;;;;;;;;;;;;;;;;;5047552;28;19924;-49
2023/06/06 05:12:29;;;;;;;;;;;;;;;;;;5025101;28;19962;-51
2023/06/06 05:14:55;;;;;;;;;;;;;;;;;;5034179;28;20337;-50
2023/06/06 05:17:22;;;;;;;;;;;;;;;;;;5051304;28;20002;-52
2023/06/06 05:19:49;;;;;;;;;;;;;;;;;;5052258;28;19920;-51
2023/06/06 05:22:15;;;;;;;;;;;;;;;;;;5051836;28;19916;-50
2023/06/06 05:24:41;;;;;;;;;;;;;;;;;;5033129;28;19913;-54
2023/06/06 05:27:07;;;;;;;;;;;;;;;;;;5027672;28;20075;-50
2023/06/06 05:29:33;;;;;;;;;;;;;;;;;;5051535;28;19923;-50
2023/06/06 05:31:59;;;;;;;;;;;;;;;;;;5037592;28;19956;-50
2023/06/06 05:34:26;;;;;;;;;;;;;;;;;;5031402;28;19967;-50
2023/06/06 05:36:52;;;;;;;;;;;;;;;;;;5047214;28;20396;-50
2023/06/06 05:39:19;;;;;;;;;;;;;;;;;;5053440;28;19977;-50
2023/06/06 05:41:47;;;;;;;;;;;;;;;;;;5050345;28;20012;-50
2023/06/06 05:44:13;;;;;;;;;;;;;;;;;;5049479;28;20610;-50
2023/06/06 05:46:39;;;;;;;;;;;;;;;;;;5050446;28;19987;-49
2023/06/06 05:49:05;;;;;;;;;;;;;;;;;;5051872;28;19916;-50
2023/06/06 05:51:32;;;;;;;;;;;;;;;;;;5051190;28;19916;-51
2023/06/06 05:53:58;;;;;;;;;;;;;;;;;;5047991;28;19943;-50
2023/06/06 05:56:23;;;;;;;;;;;;;;;;;;5047006;28;20336;-51
2023/06/06 05:58:52;;;;;;;;;;;;;;;;;;5051974;28;20000;-51
2023/06/06 06:01:20;;;;;;;;;;;;;;;;;;5049380;28;20336;-50
2023/06/06 06:03:48;;;;;;;;;;;;;;;;;;5051830;28;20457;-50
2023/06/06 06:06:14;;;;;;;;;;;;;;;;;;5048618;28;20269;-51
2023/06/06 06:08:40;;;;;;;;;;;;;;;;;;5049927;28;19955;-50
2023/06/06 06:11:07;;;;;;;;;;;;;;;;;;5048023;28;19913;-51
2023/06/06 06:13:33;;;;;;;;;;;;;;;;;;5049244;28;19912;-51
2023/06/06 06:15:59;;;;;;;;;;;;;;;;;;5046785;28;19924;-50
2023/06/06 06:18:25;;;;;;;;;;;;;;;;;;5049679;28;19948;-50
2023/06/06 06:20:51;;;;;;;;;;;;;;;;;;5049151;28;19948;-51
2023/06/06 06:23:18;;;;;;;;;;;;;;;;;;5048575;28;19964;-51
2023/06/06 06:25:45;;;;;;;;;;;;;;;;;;5049782;28;19913;-51
2023/06/06 06:28:10;;;;;;;;;;;;;;;;;;5050281;28;20419;-51
2023/06/06 06:30:36;;;;;;;;;;;;;;;;;;5046734;28;19964;-51
2023/06/06 06:33:02;;;;;;;;;;;;;;;;;;5050872;28;19966;-51
2023/06/06 06:35:28;;;;;;;;;;;;;;;;;;5048687;28;20014;-52
2023/06/06 06:37:54;;;;;;;;;;;;;;;;;;5049340;28;20013;-51
2023/06/06 06:40:20;;;;;;;;;;;;;;;;;;5047095;28;19963;-51
2023/06/06 06:42:46;;;;;;;;;;;;;;;;;;5050389;28;19915;-51
2023/06/06 06:45:12;;;;;;;;;;;;;;;;;;5049249;28;20012;-51
2023/06/06 06:47:38;;;;;;;;;;;;;;;;;;5050346;28;19960;-51
2023/06/06 06:50:04;;;;;;;;;;;;;;;;;;5047280;28;19951;-51
2023/06/06 06:52:33;;;;;;;;;;;;;;;;;;5050461;28;20015;-51
2023/06/06 06:55:00;;;;;;;;;;;;;;;;;;5029064;28;20011;-51
2023/06/06 06:57:26;;;;;;;;;;;;;;;;;;5049297;28;19924;-52
2023/06/06 06:59:52;;;;;;;;;;;;;;;;;;5048771;28;20013;-52
2023/06/06 07:02:19;;;;;;;;;;;;;;;;;;5048429;28;19914;-52
2023/06/06 07:04:46;;;;;;;;;;;;;;;;;;5048164;28;20012;-52
2023/06/06 07:07:11;;;;;;;;;;;;;;;;;;5046610;28;19916;-52
2023/06/06 07:09:37;;;;;;;;;;;;;;;;;;5045170;28;20299;-51
2023/06/06 07:12:07;;;;;;;;;;;;;;;;;;5046764;28;20360;-52
2023/06/06 07:14:33;;;;;;;;;;;;;;;;;;5030362;28;19935;-52
2023/06/06 07:16:59;;;;;;;;;;;;;;;;;;5037394;28;19920;-52
2023/06/06 07:19:26;;;;;;;;;;;;;;;;;;5048831;28;19921;-51
2023/06/06 07:21:52;;;;;;;;;;;;;;;;;;5047879;28;19913;-51
2023/06/06 07:24:20;;;;;;;;;;;;;;;;;;5042992;28;20345;-52
2023/06/06 07:26:46;;;;;;;;;;;;;;;;;;5037620;28;19932;-52
2023/06/06 07:29:11;;;;;;;;;;;;;;;;;;5048113;28;19955;-51
2023/06/06 07:31:37;;;;;;;;;;;;;;;;;;5041849;28;20036;-52
2023/06/06 07:34:03;;;;;;;;;;;;;;;;;;5046617;28;19963;-51
2023/06/06 07:36:30;;;;;;;;;;;;;;;;;;5049264;28;19916;-51
2023/06/06 07:38:57;;;;;;;;;;;;;;;;;;5049737;28;19924;-51
2023/06/06 07:41:23;;;;;;;;;;;;;;;;;;5047975;28;19913;-51
2023/06/06 07:43:49;;;;;;;;;;;;;;;;;;5049124;28;20320;-50
2023/06/06 07:46:16;;;;;;;;;;;;;;;;;;5049470;28;19924;-51
2023/06/06 07:48:42;;;;;;;;;;;;;;;;;;5049211;28;20626;-50
2023/06/06 07:51:08;;;;;;;;;;;;;;;;;;5048901;28;19958;-50
2023/06/06 07:53:34;;;;;;;;;;;;;;;;;;5049637;28;20028;-50
2023/06/06 07:56:00;;;;;;;;;;;;;;;;;;5043885;28;19951;-50
2023/06/06 07:58:27;;;;;;;;;;;;;;;;;;5046497;28;20042;-51
2023/06/06 08:00:57;;;;;;;;;;;;;;;;;;5047530;28;19960;-51
2023/06/06 08:03:23;;;;;;;;;;;;;;;;;;5049279;28;19952;-50
2023/06/06 08:05:49;;;;;;;;;;;;;;;;;;5038114;28;19960;-50
2023/06/06 08:08:15;;;;;;;;;;;;;;;;;;5046901;28;19932;-51
2023/06/06 08:10:41;;;;;;;;;;;;;;;;;;5047202;28;19924;-51
2023/06/06 08:13:07;;;;;;;;;;;;;;;;;;5047175;28;19959;-51
2023/06/06 08:15:33;;;;;;;;;;;;;;;;;;5047331;28;20017;-51
2023/06/06 08:17:59;;;;;;;;;;;;;;;;;;5046127;28;19999;-51
2023/06/06 08:20:25;;;;;;;;;;;;;;;;;;5047556;28;20021;-55
2023/06/06 08:22:51;;;;;;;;;;;;;;;;;;5047216;28;19960;-51
2023/06/06 08:25:17;;;;;;;;;;;;;;;;;;5045452;28;19917;-51
2023/06/06 08:27:43;;;;;;;;;;;;;;;;;;5047148;28;19979;-51
2023/06/06 08:30:09;;;;;;;;;;;;;;;;;;5031691;28;19956;-51
2023/06/06 08:32:35;;;;;;;;;;;;;;;;;;5048132;28;20376;-51
2023/06/06 08:35:04;;;;;;;;;;;;;;;;;;5046973;28;19917;-51
2023/06/06 08:37:30;;;;;;;;;;;;;;;;;;5047896;28;19923;-51
2023/06/06 08:39:56;;;;;;;;;;;;;;;;;;5047467;28;20043;-51
2023/06/06 08:42:22;;;;;;;;;;;;;;;;;;5047660;28;20055;-51
2023/06/06 08:44:48;;;;;;;;;;;;;;;;;;5048337;28;19995;-51
2023/06/06 08:47:14;;;;;;;;;;;;;;;;;;5047822;28;20376;-58
2023/06/06 08:49:40;;;;;;;;;;;;;;;;;;5048791;28;19917;-52
2023/06/06 08:52:07;;;;;;;;;;;;;;;;;;5042940;28;20035;-51
2023/06/06 08:54:33;;;;;;;;;;;;;;;;;;5048846;28;19992;-51
2023/06/06 08:57:07;;;;;;;;;;;;;;;;;;5047118;28;20023;-51
2023/06/06 08:59:33;;;;;;;;;;;;;;;;;;5047349;28;20526;-53
2023/06/06 09:01:59;;;;;;;;;;;;;;;;;;5046082;28;20007;-52
2023/06/06 09:04:26;;;;;;;;;;;;;;;;;;5046952;28;19935;-52
2023/06/06 09:06:56;;;;;;;;;;;;;;;;;;5045912;28;19921;-51
2023/06/06 09:09:22;;;;;;;;;;;;;;;;;;5046361;28;19924;-52
2023/06/06 09:11:49;;;;;;;;;;;;;;;;;;5046721;28;19920;-51
2023/06/06 09:14:15;;;;;;;;;;;;;;;;;;5046455;28;20443;-53
2023/06/06 09:16:41;;;;;;;;;;;;;;;;;;5048263;28;19917;-52
2023/06/06 09:19:08;;;;;;;;;;;;;;;;;;5048580;28;20073;-52
2023/06/06 09:21:34;;;;;;;;;;;;;;;;;;5045332;28;20265;-51
2023/06/06 09:24:00;;;;;;;;;;;;;;;;;;5047316;28;19909;-52
2023/06/06 09:26:26;;;;;;;;;;;;;;;;;;5046191;28;20013;-53
2023/06/06 09:28:52;;;;;;;;;;;;;;;;;;5048949;28;19956;-53
2023/06/06 09:31:18;;;;;;;;;;;;;;;;;;5046872;28;19951;-52
2023/06/06 09:33:44;;;;;;;;;;;;;;;;;;5048529;28;20305;-53
2023/06/06 09:36:10;;;;;;;;;;;;;;;;;;5048197;28;19948;-53
2023/06/06 09:38:38;;;;;;;;;;;;;;;;;;5048559;28;20000;-53
2023/06/06 09:41:04;;;;;;;;;;;;;;;;;;5045745;28;19916;-53
2023/06/06 09:43:34;;;;;;;;;;;;;;;;;;5037970;28;19913;-52
2023/06/06 09:46:04;;;;;;;;;;;;;;;;;;5048245;28;20450;-53
2023/06/06 09:48:30;;;;;;;;;;;;;;;;;;5048561;28;20018;-53
2023/06/06 09:50:57;;;;;;;;;;;;;;;;;;5039331;28;19913;-52
2023/06/06 09:53:24;;;;;;;;;;;;;;;;;;5048381;28;19920;-52
2023/06/06 09:55:50;;;;;;;;;;;;;;;;;;5046814;28;19927;-52
2023/06/06 09:58:16;;;;;;;;;;;;;;;;;;5051415;28;20360;-51
2023/06/06 10:00:42;;;;;;;;;;;;;;;;;;5045547;28;19917;-52
2023/06/06 10:03:08;;;;;;;;;;;;;;;;;;5051367;28;19921;-51
2023/06/06 10:05:35;;;;;;;;;;;;;;;;;;5051863;28;20372;-52
2023/06/06 10:08:01;;;;;;;;;;;;;;;;;;5033687;28;20280;-52
2023/06/06 10:10:27;;;;;;;;;;;;;;;;;;5033288;28;19909;-52
2023/06/06 10:12:56;;;;;;;;;;;;;;;;;;5048531;28;19916;-52
2023/06/06 10:15:22;;;;;;;;;;;;;;;;;;5050745;28;19923;-52
2023/06/06 10:17:49;;;;;;;;;;;;;;;;;;5033695;28;19923;-51
2023/06/06 10:20:16;;;;;;;;;;;;;;;;;;5051362;28;20464;-52
2023/06/06 10:22:42;;;;;;;;;;;;;;;;;;5045355;28;19952;-52
2023/06/06 10:25:08;;;;;;;;;;;;;;;;;;5050549;28;19917;-52
2023/06/06 10:27:34;;;;;;;;;;;;;;;;;;5049525;28;19920;-52
2023/06/06 10:30:01;;;;;;;;;;;;;;;;;;5039194;28;19970;-52
2023/06/06 10:32:27;;;;;;;;;;;;;;;;;;5048083;28;19943;-53
2023/06/06 10:34:53;;;;;;;;;;;;;;;;;;5051234;28;20200;-53
2023/06/06 10:37:20;;;;;;;;;;;;;;;;;;5049928;28;19917;-55
2023/06/06 10:39:46;;;;;;;;;;;;;;;;;;5049040;28;19986;-52
2023/06/06 10:42:13;;;;;;;;;;;;;;;;;;5050537;28;19912;-53
2023/06/06 10:44:41;;;;;;;;;;;;;;;;;;5051009;28;19912;-52
2023/06/06 10:47:07;;;;;;;;;;;;;;;;;;5051589;28;20376;-52
2023/06/06 10:49:33;;;;;;;;;;;;;;;;;;5050118;28;19916;-52
2023/06/06 10:51:59;;;;;;;;;;;;;;;;;;5050542;28;20351;-53
2023/06/06 10:54:25;;;;;;;;;;;;;;;;;;5051423;28;20395;-55
2023/06/06 10:56:51;;;;;;;;;;;;;;;;;;5049570;28;20039;-52
2023/06/06 10:59:17;;;;;;;;;;;;;;;;;;5051119;28;19939;-53
2023/06/06 11:01:46;;;;;;;;;;;;;;;;;;5050786;28;19940;-53
2023/06/06 11:04:13;;;;;;;;;;;;;;;;;;5050512;28;19916;-54
2023/06/06 11:06:39;;;;;;;;;;;;;;;;;;5049222;28;19917;-54
2023/06/06 11:09:05;;;;;;;;;;;;;;;;;;5051129;28;20372;-56
2023/06/06 11:11:32;;;;;;;;;;;;;;;;;;5048414;28;20377;-53
2023/06/06 11:13:58;;;;;;;;;;;;;;;;;;5050579;28;20007;-54
2023/06/06 11:16:24;;;;;;;;;;;;;;;;;;5050614;28;20405;-53
2023/06/06 11:18:50;;;;;;;;;;;;;;;;;;5044819;28;19913;-53
2023/06/06 11:21:16;;;;;;;;;;;;;;;;;;5046356;28;19952;-53
2023/06/06 11:23:42;;;;;;;;;;;;;;;;;;5043485;28;19920;-53
2023/06/06 11:26:09;;;;;;;;;;;;;;;;;;5046197;28;20272;-53
2023/06/06 11:28:35;;;;;;;;;;;;;;;;;;5049285;28;19916;-53
2023/06/06 11:31:02;;;;;;;;;;;;;;;;;;5048556;28;19956;-53
2023/06/06 11:33:28;;;;;;;;;;;;;;;;;;5046934;28;19917;-53
2023/06/06 11:35:55;;;;;;;;;;;;;;;;;;5031061;28;19952;-53
2023/06/06 11:38:21;;;;;;;;;;;;;;;;;;5050170;28;19964;-52
2023/06/06 11:40:47;;;;;;;;;;;;;;;;;;5048344;28;20249;-52
2023/06/06 11:43:13;;;;;;;;;;;;;;;;;;5049177;28;19919;-52
2023/06/06 11:45:42;;;;;;;;;;;;;;;;;;5050033;28;20341;-52
2023/06/06 11:48:09;;;;;;;;;;;;;;;;;;5049632;28;19920;-53
2023/06/06 11:50:37;;;;;;;;;;;;;;;;;;5049931;28;20021;-53
2023/06/06 11:53:05;;;;;;;;;;;;;;;;;;5049779;28;19909;-53
2023/06/06 11:55:31;;;;;;;;;;;;;;;;;;5049153;28;19951;-52
2023/06/06 11:57:58;;;;;;;;;;;;;;;;;;5048273;28;20194;-52
2023/06/06 12:00:24;;;;;;;;;;;;;;;;;;5049795;28;20003;-52
2023/06/06 12:02:51;;;;;;;;;;;;;;;;;;5031790;28;20240;-54
2023/06/06 12:05:18;;;;;;;;;;;;;;;;;;5049355;28;19913;-52
2023/06/06 12:07:45;;;;;;;;;;;;;;;;;;5049416;28;19917;-53
2023/06/06 12:10:11;;;;;;;;;;;;;;;;;;5046077;28;20327;-53
2023/06/06 12:12:37;;;;;;;;;;;;;;;;;;5047676;28;19908;-53
2023/06/06 12:15:03;;;;;;;;;;;;;;;;;;5049088;28;19913;-53
2023/06/06 12:17:29;;;;;;;;;;;;;;;;;;5049458;28;19949;-53
2023/06/06 12:19:55;;;;;;;;;;;;;;;;;;5048867;28;19924;-53
2023/06/06 12:22:22;;;;;;;;;;;;;;;;;;5049005;28;20047;-53
2023/06/06 12:24:48;;;;;;;;;;;;;;;;;;5030529;28;20001;-53
2023/06/06 12:27:16;;;;;;;;;;;;;;;;;;5048957;28;19921;-53
2023/06/06 12:29:43;;;;;;;;;;;;;;;;;;5048049;28;19912;-53
2023/06/06 12:32:09;;;;;;;;;;;;;;;;;;5048661;28;19909;-53
2023/06/06 12:34:38;;;;;;;;;;;;;;;;;;5050265;28;19927;-53
2023/06/06 12:37:04;;;;;;;;;;;;;;;;;;5048624;28;20367;-53
2023/06/06 12:39:31;;;;;;;;;;;;;;;;;;5049200;28;19936;-54
2023/06/06 12:41:57;;;;;;;;;;;;;;;;;;5047947;28;19920;-53
2023/06/06 12:44:24;;;;;;;;;;;;;;;;;;5028989;28;19959;-54
2023/06/06 12:46:52;;;;;;;;;;;;;;;;;;5049035;28;19924;-53
2023/06/06 12:49:18;;;;;;;;;;;;;;;;;;5047883;28;20332;-53
2023/06/06 12:51:44;;;;;;;;;;;;;;;;;;5048407;28;19913;-54
2023/06/06 12:54:10;;;;;;;;;;;;;;;;;;5048901;28;20356;-54
2023/06/06 12:56:36;;;;;;;;;;;;;;;;;;5047006;28;19967;-53
2023/06/06 12:59:03;;;;;;;;;;;;;;;;;;5049067;28;19916;-54
2023/06/06 13:01:29;;;;;;;;;;;;;;;;;;5044935;28;19952;-54
2023/06/06 13:03:55;;;;;;;;;;;;;;;;;;5048075;28;19920;-54
2023/06/06 13:06:21;;;;;;;;;;;;;;;;;;5048139;28;19917;-54
2023/06/06 13:08:47;;;;;;;;;;;;;;;;;;5049020;28;19908;-55
2023/06/06 13:11:14;;;;;;;;;;;;;;;;;;5044294;28;19952;-54
2023/06/06 13:13:40;;;;;;;;;;;;;;;;;;5048670;28;20364;-54
2023/06/06 13:16:06;;;;;;;;;;;;;;;;;;5045515;28;19924;-54
2023/06/06 13:18:32;;;;;;;;;;;;;;;;;;5048907;28;19939;-54
2023/06/06 13:21:01;;;;;;;;;;;;;;;;;;5048782;28;19913;-54
2023/06/06 13:23:28;;;;;;;;;;;;;;;;;;5041724;28;19920;-54
2023/06/06 13:25:57;;;;;;;;;;;;;;;;;;5024477;28;20341;-53
2023/06/06 13:28:23;;;;;;;;;;;;;;;;;;5045794;28;19967;-52
2023/06/06 13:30:49;;;;;;;;;;;;;;;;;;5050372;28;19917;-52
2023/06/06 13:33:16;;;;;;;;;;;;;;;;;;5051855;28;20364;-52
2023/06/06 13:35:42;;;;;;;;;;;;;;;;;;5051601;28;19980;-51
2023/06/06 13:38:08;;;;;;;;;;;;;;;;;;5052408;28;20093;-55
2023/06/06 13:40:37;;;;;;;;;;;;;;;;;;5050723;28;20279;-54
2023/06/06 13:43:06;;;;;;;;;;;;;;;;;;5051749;28;19924;-52
2023/06/06 13:45:33;;;;;;;;;;;;;;;;;;5051899;28;19917;-53
2023/06/06 13:48:00;;;;;;;;;;;;;;;;;;5052399;28;19920;-53
2023/06/06 13:50:27;;;;;;;;;;;;;;;;;;5051085;28;19956;-53
2023/06/06 13:52:53;;;;;;;;;;;;;;;;;;5052400;28;19962;-52
2023/06/06 13:55:19;;;;;;;;;;;;;;;;;;5047759;28;20260;-52
2023/06/06 13:57:51;;;;;;;;;;;;;;;;;;5050842;28;19928;-52
2023/06/06 14:00:17;;;;;;;;;;;;;;;;;;5033839;28;19921;-52
2023/06/06 14:02:44;;;;;;;;;;;;;;;;;;5052529;28;20280;-53
2023/06/06 14:05:10;;;;;;;;;;;;;;;;;;5047642;28;20011;-52
2023/06/06 14:07:36;;;;;;;;;;;;;;;;;;5049399;28;20093;-51
2023/06/06 14:10:02;;;;;;;;;;;;;;;;;;5045034;28;20022;-51
2023/06/06 14:12:28;;;;;;;;;;;;;;;;;;5047678;28;20553;-50
2023/06/06 14:14:55;;;;;;;;;;;;;;;;;;5026085;28;20261;-50
2023/06/06 14:17:21;;;;;;;;;;;;;;;;;;5045860;28;20019;-51
2023/06/06 14:19:51;;;;;;;;;;;;;;;;;;5051257;28;19946;-50
2023/06/06 14:22:33;;;;;;;;;;;;;;;;;;5050886;28;19923;-51
2023/06/06 14:25:00;;;;;;;;;;;;;;;;;;5030253;28;19959;-51
2023/06/06 14:27:25;;;;;;;;;;;;;;;;;;5044461;28;20450;-50
2023/06/06 14:29:52;;;;;;;;;;;;;;;;;;5034927;28;19963;-50
2023/06/06 14:32:19;;;;;;;;;;;;;;;;;;5043412;28;20390;-50
2023/06/06 14:34:45;;;;;;;;;;;;;;;;;;5051277;28;20344;-53
2023/06/06 14:37:11;;;;;;;;;;;;;;;;;;5050437;28;19919;-53
2023/06/06 14:39:37;;;;;;;;;;;;;;;;;;5051708;28;20395;-54
2023/06/06 14:42:03;;;;;;;;;;;;;;;;;;5048394;28;19936;-52
2023/06/06 14:44:33;;;;;;;;;;;;;;;;;;5047232;28;20039;-53
2023/06/06 14:46:58;;;;;;;;;;;;;;;;;;5048389;28;19936;-53
2023/06/06 14:49:26;;;;;;;;;;;;;;;;;;5039826;28;19993;-54
2023/06/06 14:51:53;;;;;;;;;;;;;;;;;;5036208;28;20042;-54
2023/06/06 14:54:19;;;;;;;;;;;;;;;;;;5041815;28;19913;-55
2023/06/06 14:56:45;;;;;;;;;;;;;;;;;;5027613;28;19913;-55
2023/06/06 14:59:11;;;;;;;;;;;;;;;;;;5044528;28;20214;-54
2023/06/06 15:01:39;;;;;;;;;;;;;;;;;;5037365;28;19921;-54
2023/06/06 15:04:06;;;;;;;;;;;;;;;;;;5041403;28;20019;-54
2023/06/06 15:06:32;;;;;;;;;;;;;;;;;;5047449;28;19956;-55
2023/06/06 15:08:59;;;;;;;;;;;;;;;;;;5050946;28;19999;-54
2023/06/06 15:11:25;;;;;;;;;;;;;;;;;;5054915;28;19944;-54
2023/06/06 15:13:51;;;;;;;;;;;;;;;;;;5051042;28;20003;-53
2023/06/06 15:16:17;;;;;;;;;;;;;;;;;;5049592;28;20003;-53
2023/06/06 15:18:43;;;;;;;;;;;;;;;;;;5050640;28;19948;-52
2023/06/06 15:21:09;;;;;;;;;;;;;;;;;;5049972;28;20295;-53
2023/06/06 15:23:35;;;;;;;;;;;;;;;;;;5032612;28;20318;-53
2023/06/06 15:26:01;;;;;;;;;;;;;;;;;;5044880;28;20265;-53
2023/06/06 15:28:27;;;;;;;;;;;;;;;;;;5049532;28;19998;-55
2023/06/06 15:30:56;;;;;;;;;;;;;;;;;;5050096;28;20284;-53
2023/06/06 15:33:22;;;;;;;;;;;;;;;;;;5049601;28;19920;-52
2023/06/06 15:35:48;;;;;;;;;;;;;;;;;;5049484;28;19916;-54
2023/06/06 15:38:18;;;;;;;;;;;;;;;;;;5049281;28;20409;-53
2023/06/06 15:40:45;;;;;;;;;;;;;;;;;;5049217;28;19912;-54
2023/06/06 15:43:11;;;;;;;;;;;;;;;;;;5050722;28;20310;-54
2023/06/06 15:45:38;;;;;;;;;;;;;;;;;;5049797;28;19920;-53
2023/06/06 15:48:07;;;;;;;;;;;;;;;;;;5047618;28;20712;-54
2023/06/06 15:50:33;;;;;;;;;;;;;;;;;;5031576;28;20379;-54
2023/06/06 15:52:58;;;;;;;;;;;;;;;;;;5048301;28;19964;-53
2023/06/06 15:55:25;;;;;;;;;;;;;;;;;;5047269;28;20359;-53
2023/06/06 15:57:51;;;;;;;;;;;;;;;;;;5049040;28;19913;-52
2023/06/06 16:00:17;;;;;;;;;;;;;;;;;;5049262;28;20316;-53
2023/06/06 16:02:43;;;;;;;;;;;;;;;;;;5045401;28;19920;-52
2023/06/06 16:05:10;;;;;;;;;;;;;;;;;;5045107;28;19975;-52
2023/06/06 16:07:37;;;;;;;;;;;;;;;;;;5046831;28;20374;-51
2023/06/06 16:10:03;;;;;;;;;;;;;;;;;;5027461;28;20327;-51
2023/06/06 16:12:30;;;;;;;;;;;;;;;;;;5041850;28;20447;-52
2023/06/06 16:14:56;;;;;;;;;;;;;;;;;;5049260;28;19916;-52
2023/06/06 16:17:22;;;;;;;;;;;;;;;;;;5029257;28;19975;-52
2023/06/06 16:19:50;;;;;;;;;;;;;;;;;;5046153;28;19913;-51
2023/06/06 16:22:16;;;;;;;;;;;;;;;;;;5043506;28;20319;-52
2023/06/06 16:24:42;;;;;;;;;;;;;;;;;;5039957;28;20443;-51
2023/06/06 16:27:08;;;;;;;;;;;;;;;;;;5046114;28;19917;-52
2023/06/06 16:29:34;;;;;;;;;;;;;;;;;;5045591;28;19917;-52
2023/06/06 16:32:01;;;;;;;;;;;;;;;;;;5038901;28;20311;-52
2023/06/06 16:34:27;;;;;;;;;;;;;;;;;;5043330;28;19923;-53
2023/06/06 16:36:54;;;;;;;;;;;;;;;;;;5048478;28;19952;-52
2023/06/06 16:39:21;;;;;;;;;;;;;;;;;;5042030;28;19927;-52
2023/06/06 16:41:47;;;;;;;;;;;;;;;;;;5047262;28;19912;-52